sensor_id;sensor_type;location;lat;lon;timestamp;P1;durP1;ratioP1;P2;durP2;ratioP2
6626;SDS011;3349;49.830;8.748;2022-12-07T00:01:24;15.10;;;10.38;;
6626;SDS011;3349;49.830;8.748;2022-12-07T00:03:52;16.67;;;9.73;;
6626;SDS011;3349;49.830;8.748;2022-12-07T00:06:23;15.30;;;9.93;;
6626;SDS011;3349;49.830;8.748;2022-12-07T00:08:50;17.53;;;10.10;;
6626;SDS011;3349;49.830;8.748;2022-12-07T00:11:17;15.60;;;9.87;;
6626;SDS011;3349;49.830;8.748;2022-12-07T00:13:46;17.50;;;10.53;;
6626;SDS011;3349;49.830;8.748;2022-12-07T00:16:14;16.10;;;10.60;;
6626;SDS011;3349;49.830;8.748;2022-12-07T00:18:42;16.33;;;10.07;;
6626;SDS011;3349;49.830;8.748;2022-12-07T00:21:10;14.23;;;9.93;;
6626;SDS011;3349;49.830;8.748;2022-12-07T00:23:40;15.60;;;10.07;;
6626;SDS011;3349;49.830;8.748;2022-12-07T00:26:08;14.93;;;10.43;;
6626;SDS011;3349;49.830;8.748;2022-12-07T00:28:37;16.20;;;10.18;;
6626;SDS011;3349;49.830;8.748;2022-12-07T00:31:04;15.63;;;10.20;;
6626;SDS011;3349;49.830;8.748;2022-12-07T00:33:33;16.63;;;10.87;;
6626;SDS011;3349;49.830;8.748;2022-12-07T00:36:00;16.17;;;9.82;;
6626;SDS011;3349;49.830;8.748;2022-12-07T00:38:28;15.10;;;10.73;;
6626;SDS011;3349;49.830;8.748;2022-12-07T00:40:57;15.90;;;10.88;;
6626;SDS011;3349;49.830;8.748;2022-12-07T00:43:25;14.63;;;11.00;;
6626;SDS011;3349;49.830;8.748;2022-12-07T00:45:52;14.88;;;9.95;;
6626;SDS011;3349;49.830;8.748;2022-12-07T00:48:20;14.70;;;10.18;;
6626;SDS011;3349;49.830;8.748;2022-12-07T00:50:47;15.77;;;10.48;;
6626;SDS011;3349;49.830;8.748;2022-12-07T00:53:14;16.02;;;9.95;;
6626;SDS011;3349;49.830;8.748;2022-12-07T00:55:42;14.52;;;9.93;;
6626;SDS011;3349;49.830;8.748;2022-12-07T00:58:10;15.25;;;10.13;;
6626;SDS011;3349;49.830;8.748;2022-12-07T01:00:38;15.80;;;10.53;;
6626;SDS011;3349;49.830;8.748;2022-12-07T01:03:08;16.55;;;10.20;;
6626;SDS011;3349;49.830;8.748;2022-12-07T01:05:36;16.70;;;10.60;;
6626;SDS011;3349;49.830;8.748;2022-12-07T01:08:03;14.97;;;10.00;;
6626;SDS011;3349;49.830;8.748;2022-12-07T01:10:30;15.80;;;10.67;;
6626;SDS011;3349;49.830;8.748;2022-12-07T01:12:57;15.00;;;10.27;;
6626;SDS011;3349;49.830;8.748;2022-12-07T01:15:25;15.87;;;10.67;;
6626;SDS011;3349;49.830;8.748;2022-12-07T01:17:53;17.43;;;11.20;;
6626;SDS011;3349;49.830;8.748;2022-12-07T01:20:20;15.60;;;10.90;;
6626;SDS011;3349;49.830;8.748;2022-12-07T01:22:47;16.50;;;10.97;;
6626;SDS011;3349;49.830;8.748;2022-12-07T01:25:14;17.70;;;10.67;;
6626;SDS011;3349;49.830;8.748;2022-12-07T01:27:40;16.33;;;10.47;;
6626;SDS011;3349;49.830;8.748;2022-12-07T01:30:07;15.80;;;10.73;;
6626;SDS011;3349;49.830;8.748;2022-12-07T01:32:37;16.67;;;10.57;;
6626;SDS011;3349;49.830;8.748;2022-12-07T01:35:04;16.83;;;10.77;;
6626;SDS011;3349;49.830;8.748;2022-12-07T01:37:33;15.80;;;10.63;;
6626;SDS011;3349;49.830;8.748;2022-12-07T01:40:02;20.60;;;10.05;;
6626;SDS011;3349;49.830;8.748;2022-12-07T01:42:30;15.87;;;10.17;;
6626;SDS011;3349;49.830;8.748;2022-12-07T01:48:04;19.77;;;10.67;;
6626;SDS011;3349;49.830;8.748;2022-12-07T01:50:34;14.83;;;9.93;;
6626;SDS011;3349;49.830;8.748;2022-12-07T01:53:02;15.13;;;10.63;;
6626;SDS011;3349;49.830;8.748;2022-12-07T01:55:32;14.20;;;9.63;;
6626;SDS011;3349;49.830;8.748;2022-12-07T01:58:03;15.73;;;10.18;;
6626;SDS011;3349;49.830;8.748;2022-12-07T02:00:30;15.87;;;9.50;;
6626;SDS011;3349;49.830;8.748;2022-12-07T02:02:59;14.83;;;10.20;;
6626;SDS011;3349;49.830;8.748;2022-12-07T02:05:31;14.75;;;10.27;;
6626;SDS011;3349;49.830;8.748;2022-12-07T02:07:59;14.67;;;9.60;;
6626;SDS011;3349;49.830;8.748;2022-12-07T02:10:28;18.20;;;10.00;;
6626;SDS011;3349;49.830;8.748;2022-12-07T02:12:57;16.27;;;10.80;;
6626;SDS011;3349;49.830;8.748;2022-12-07T02:15:29;14.50;;;10.03;;
6626;SDS011;3349;49.830;8.748;2022-12-07T02:18:05;14.50;;;9.88;;
6626;SDS011;3349;49.830;8.748;2022-12-07T02:20:38;14.13;;;9.97;;
6626;SDS011;3349;49.830;8.748;2022-12-07T02:26:12;15.50;;;10.17;;
6626;SDS011;3349;49.830;8.748;2022-12-07T02:29:03;16.13;;;10.53;;
6626;SDS011;3349;49.830;8.748;2022-12-07T02:31:42;17.52;;;10.50;;
6626;SDS011;3349;49.830;8.748;2022-12-07T02:34:14;13.73;;;9.13;;
6626;SDS011;3349;49.830;8.748;2022-12-07T02:36:50;15.77;;;10.27;;
6626;SDS011;3349;49.830;8.748;2022-12-07T02:39:22;19.15;;;10.02;;
6626;SDS011;3349;49.830;8.748;2022-12-07T02:41:56;12.27;;;8.67;;
6626;SDS011;3349;49.830;8.748;2022-12-07T02:44:28;17.15;;;10.07;;
6626;SDS011;3349;49.830;8.748;2022-12-07T02:46:59;15.05;;;9.98;;
6626;SDS011;3349;49.830;8.748;2022-12-07T02:49:30;15.93;;;9.82;;
6626;SDS011;3349;49.830;8.748;2022-12-07T02:51:57;16.90;;;9.60;;
6626;SDS011;3349;49.830;8.748;2022-12-07T02:54:24;14.27;;;10.00;;
6626;SDS011;3349;49.830;8.748;2022-12-07T02:56:52;14.73;;;9.60;;
6626;SDS011;3349;49.830;8.748;2022-12-07T02:59:31;14.97;;;9.13;;
6626;SDS011;3349;49.830;8.748;2022-12-07T03:02:12;13.20;;;9.50;;
6626;SDS011;3349;49.830;8.748;2022-12-07T03:04:50;14.20;;;9.00;;
6626;SDS011;3349;49.830;8.748;2022-12-07T03:07:29;15.17;;;9.10;;
6626;SDS011;3349;49.830;8.748;2022-12-07T03:10:01;13.07;;;8.73;;
6626;SDS011;3349;49.830;8.748;2022-12-07T03:12:35;15.63;;;9.55;;
6626;SDS011;3349;49.830;8.748;2022-12-07T03:15:12;13.30;;;8.60;;
6626;SDS011;3349;49.830;8.748;2022-12-07T03:17:43;14.70;;;9.20;;
6626;SDS011;3349;49.830;8.748;2022-12-07T03:20:12;14.67;;;9.47;;
6626;SDS011;3349;49.830;8.748;2022-12-07T03:22:42;14.90;;;9.25;;
6626;SDS011;3349;49.830;8.748;2022-12-07T03:25:11;14.93;;;9.10;;
6626;SDS011;3349;49.830;8.748;2022-12-07T03:27:43;14.80;;;9.17;;
6626;SDS011;3349;49.830;8.748;2022-12-07T03:30:17;10.97;;;7.80;;
6626;SDS011;3349;49.830;8.748;2022-12-07T03:32:47;11.67;;;7.87;;
6626;SDS011;3349;49.830;8.748;2022-12-07T03:35:16;12.30;;;8.30;;
6626;SDS011;3349;49.830;8.748;2022-12-07T03:37:47;10.90;;;7.60;;
6626;SDS011;3349;49.830;8.748;2022-12-07T03:40:19;11.97;;;7.70;;
6626;SDS011;3349;49.830;8.748;2022-12-07T03:42:52;11.60;;;8.03;;
6626;SDS011;3349;49.830;8.748;2022-12-07T03:45:23;11.13;;;7.73;;
6626;SDS011;3349;49.830;8.748;2022-12-07T03:47:58;11.73;;;7.43;;
6626;SDS011;3349;49.830;8.748;2022-12-07T03:50:31;12.87;;;7.57;;
6626;SDS011;3349;49.830;8.748;2022-12-07T03:53:04;12.60;;;7.53;;
6626;SDS011;3349;49.830;8.748;2022-12-07T03:55:38;10.20;;;7.27;;
6626;SDS011;3349;49.830;8.748;2022-12-07T03:58:09;11.60;;;8.20;;
6626;SDS011;3349;49.830;8.748;2022-12-07T04:00:40;13.00;;;7.53;;
6626;SDS011;3349;49.830;8.748;2022-12-07T04:03:07;13.10;;;7.50;;
6626;SDS011;3349;49.830;8.748;2022-12-07T04:05:34;12.37;;;7.43;;
6626;SDS011;3349;49.830;8.748;2022-12-07T04:08:02;9.70;;;6.93;;
6626;SDS011;3349;49.830;8.748;2022-12-07T04:10:29;12.13;;;7.37;;
6626;SDS011;3349;49.830;8.748;2022-12-07T04:12:55;11.00;;;7.23;;
6626;SDS011;3349;49.830;8.748;2022-12-07T04:15:22;10.13;;;7.20;;
6626;SDS011;3349;49.830;8.748;2022-12-07T04:17:51;12.17;;;7.77;;
6626;SDS011;3349;49.830;8.748;2022-12-07T04:20:17;11.07;;;7.00;;
6626;SDS011;3349;49.830;8.748;2022-12-07T04:22:44;11.43;;;7.97;;
6626;SDS011;3349;49.830;8.748;2022-12-07T04:25:11;12.07;;;7.33;;
6626;SDS011;3349;49.830;8.748;2022-12-07T04:27:38;9.20;;;6.97;;
6626;SDS011;3349;49.830;8.748;2022-12-07T04:30:05;11.30;;;7.60;;
6626;SDS011;3349;49.830;8.748;2022-12-07T04:32:32;11.40;;;7.97;;
6626;SDS011;3349;49.830;8.748;2022-12-07T04:35:00;11.40;;;7.70;;
6626;SDS011;3349;49.830;8.748;2022-12-07T04:37:27;11.30;;;7.43;;
6626;SDS011;3349;49.830;8.748;2022-12-07T04:39:54;10.00;;;7.07;;
6626;SDS011;3349;49.830;8.748;2022-12-07T04:42:21;10.50;;;7.40;;
6626;SDS011;3349;49.830;8.748;2022-12-07T04:44:47;11.27;;;7.70;;
6626;SDS011;3349;49.830;8.748;2022-12-07T04:47:14;11.57;;;8.00;;
6626;SDS011;3349;49.830;8.748;2022-12-07T04:49:41;12.23;;;7.50;;
6626;SDS011;3349;49.830;8.748;2022-12-07T04:52:09;11.70;;;7.57;;
6626;SDS011;3349;49.830;8.748;2022-12-07T04:54:36;10.50;;;6.77;;
6626;SDS011;3349;49.830;8.748;2022-12-07T04:57:02;10.57;;;7.07;;
6626;SDS011;3349;49.830;8.748;2022-12-07T04:59:29;10.17;;;7.37;;
6626;SDS011;3349;49.830;8.748;2022-12-07T05:01:56;10.07;;;7.13;;
6626;SDS011;3349;49.830;8.748;2022-12-07T05:04:23;10.57;;;7.77;;
6626;SDS011;3349;49.830;8.748;2022-12-07T05:06:49;10.23;;;7.07;;
6626;SDS011;3349;49.830;8.748;2022-12-07T05:09:18;10.80;;;7.40;;
6626;SDS011;3349;49.830;8.748;2022-12-07T05:11:47;11.33;;;7.23;;
6626;SDS011;3349;49.830;8.748;2022-12-07T05:14:15;14.00;;;7.73;;
6626;SDS011;3349;49.830;8.748;2022-12-07T05:16:43;11.43;;;7.47;;
6626;SDS011;3349;49.830;8.748;2022-12-07T05:19:14;10.73;;;7.77;;
6626;SDS011;3349;49.830;8.748;2022-12-07T05:21:41;11.97;;;7.93;;
6626;SDS011;3349;49.830;8.748;2022-12-07T05:24:09;12.98;;;8.35;;
6626;SDS011;3349;49.830;8.748;2022-12-07T05:26:39;12.33;;;8.30;;
6626;SDS011;3349;49.830;8.748;2022-12-07T05:29:06;11.03;;;7.17;;
6626;SDS011;3349;49.830;8.748;2022-12-07T05:31:33;14.43;;;8.57;;
6626;SDS011;3349;49.830;8.748;2022-12-07T05:34:00;13.53;;;7.90;;
6626;SDS011;3349;49.830;8.748;2022-12-07T05:36:27;17.57;;;8.30;;
6626;SDS011;3349;49.830;8.748;2022-12-07T05:38:56;12.67;;;8.87;;
6626;SDS011;3349;49.830;8.748;2022-12-07T05:41:22;10.77;;;8.10;;
6626;SDS011;3349;49.830;8.748;2022-12-07T05:44:08;10.47;;;7.63;;
6626;SDS011;3349;49.830;8.748;2022-12-07T05:46:35;14.37;;;8.33;;
6626;SDS011;3349;49.830;8.748;2022-12-07T05:49:02;12.37;;;8.60;;
6626;SDS011;3349;49.830;8.748;2022-12-07T05:51:29;15.43;;;8.20;;
6626;SDS011;3349;49.830;8.748;2022-12-07T05:53:55;13.43;;;9.00;;
6626;SDS011;3349;49.830;8.748;2022-12-07T05:56:22;12.70;;;8.00;;
6626;SDS011;3349;49.830;8.748;2022-12-07T05:58:49;11.30;;;7.67;;
6626;SDS011;3349;49.830;8.748;2022-12-07T06:01:35;10.90;;;7.70;;
6626;SDS011;3349;49.830;8.748;2022-12-07T06:04:01;11.57;;;8.37;;
6626;SDS011;3349;49.830;8.748;2022-12-07T06:06:28;13.23;;;8.33;;
6626;SDS011;3349;49.830;8.748;2022-12-07T06:08:55;13.57;;;9.00;;
6626;SDS011;3349;49.830;8.748;2022-12-07T06:11:22;12.30;;;8.30;;
6626;SDS011;3349;49.830;8.748;2022-12-07T06:14:06;13.40;;;9.30;;
6626;SDS011;3349;49.830;8.748;2022-12-07T06:16:34;12.95;;;9.02;;
6626;SDS011;3349;49.830;8.748;2022-12-07T06:19:01;13.57;;;9.05;;
6626;SDS011;3349;49.830;8.748;2022-12-07T06:21:28;12.93;;;8.27;;
6626;SDS011;3349;49.830;8.748;2022-12-07T06:23:55;13.63;;;8.10;;
6626;SDS011;3349;49.830;8.748;2022-12-07T06:26:22;13.50;;;8.73;;
6626;SDS011;3349;49.830;8.748;2022-12-07T06:28:48;12.50;;;8.63;;
6626;SDS011;3349;49.830;8.748;2022-12-07T06:31:15;12.77;;;8.87;;
6626;SDS011;3349;49.830;8.748;2022-12-07T06:33:43;12.82;;;9.00;;
6626;SDS011;3349;49.830;8.748;2022-12-07T06:36:10;15.48;;;10.27;;
6626;SDS011;3349;49.830;8.748;2022-12-07T06:38:37;16.03;;;9.60;;
6626;SDS011;3349;49.830;8.748;2022-12-07T06:41:04;13.53;;;8.50;;
6626;SDS011;3349;49.830;8.748;2022-12-07T06:43:31;14.80;;;9.25;;
6626;SDS011;3349;49.830;8.748;2022-12-07T06:45:58;11.97;;;8.97;;
6626;SDS011;3349;49.830;8.748;2022-12-07T06:48:25;12.23;;;8.97;;
6626;SDS011;3349;49.830;8.748;2022-12-07T06:50:53;11.77;;;8.60;;
6626;SDS011;3349;49.830;8.748;2022-12-07T06:53:20;14.97;;;9.63;;
6626;SDS011;3349;49.830;8.748;2022-12-07T06:55:46;13.68;;;8.85;;
6626;SDS011;3349;49.830;8.748;2022-12-07T06:58:13;14.53;;;9.43;;
6626;SDS011;3349;49.830;8.748;2022-12-07T07:00:40;15.40;;;9.73;;
6626;SDS011;3349;49.830;8.748;2022-12-07T07:03:07;12.77;;;9.07;;
6626;SDS011;3349;49.830;8.748;2022-12-07T07:05:34;17.10;;;9.23;;
6626;SDS011;3349;49.830;8.748;2022-12-07T07:08:02;13.80;;;9.02;;
6626;SDS011;3349;49.830;8.748;2022-12-07T07:10:29;13.37;;;9.27;;
6626;SDS011;3349;49.830;8.748;2022-12-07T07:12:56;14.83;;;9.37;;
6626;SDS011;3349;49.830;8.748;2022-12-07T07:15:23;15.13;;;9.00;;
6626;SDS011;3349;49.830;8.748;2022-12-07T07:17:50;16.47;;;9.63;;
6626;SDS011;3349;49.830;8.748;2022-12-07T07:20:17;15.60;;;9.60;;
6626;SDS011;3349;49.830;8.748;2022-12-07T07:22:44;12.13;;;8.93;;
6626;SDS011;3349;49.830;8.748;2022-12-07T07:25:12;12.40;;;8.93;;
6626;SDS011;3349;49.830;8.748;2022-12-07T07:27:39;13.87;;;8.97;;
6626;SDS011;3349;49.830;8.748;2022-12-07T07:30:06;14.43;;;9.10;;
6626;SDS011;3349;49.830;8.748;2022-12-07T07:32:34;15.20;;;8.85;;
6626;SDS011;3349;49.830;8.748;2022-12-07T07:35:00;13.52;;;8.20;;
6626;SDS011;3349;49.830;8.748;2022-12-07T07:37:27;13.23;;;9.07;;
6626;SDS011;3349;49.830;8.748;2022-12-07T07:39:54;11.70;;;8.43;;
6626;SDS011;3349;49.830;8.748;2022-12-07T07:42:22;15.00;;;10.18;;
6626;SDS011;3349;49.830;8.748;2022-12-07T07:44:49;16.60;;;9.70;;
6626;SDS011;3349;49.830;8.748;2022-12-07T07:47:16;16.90;;;9.73;;
6626;SDS011;3349;49.830;8.748;2022-12-07T07:49:43;14.50;;;9.00;;
6626;SDS011;3349;49.830;8.748;2022-12-07T07:52:09;14.13;;;9.40;;
6626;SDS011;3349;49.830;8.748;2022-12-07T07:54:36;14.20;;;9.37;;
6626;SDS011;3349;49.830;8.748;2022-12-07T07:57:03;13.88;;;9.57;;
6626;SDS011;3349;49.830;8.748;2022-12-07T07:59:31;16.48;;;9.65;;
6626;SDS011;3349;49.830;8.748;2022-12-07T08:01:58;14.00;;;9.80;;
6626;SDS011;3349;49.830;8.748;2022-12-07T08:04:25;14.32;;;9.38;;
6626;SDS011;3349;49.830;8.748;2022-12-07T08:06:52;12.17;;;8.50;;
6626;SDS011;3349;49.830;8.748;2022-12-07T08:09:18;13.97;;;9.80;;
6626;SDS011;3349;49.830;8.748;2022-12-07T08:11:45;13.52;;;10.05;;
6626;SDS011;3349;49.830;8.748;2022-12-07T08:14:12;15.27;;;10.10;;
6626;SDS011;3349;49.830;8.748;2022-12-07T08:16:40;13.82;;;9.63;;
6626;SDS011;3349;49.830;8.748;2022-12-07T08:19:07;14.07;;;9.35;;
6626;SDS011;3349;49.830;8.748;2022-12-07T08:21:34;15.23;;;9.30;;
6626;SDS011;3349;49.830;8.748;2022-12-07T08:24:00;13.27;;;9.20;;
6626;SDS011;3349;49.830;8.748;2022-12-07T08:26:27;16.88;;;10.82;;
6626;SDS011;3349;49.830;8.748;2022-12-07T08:28:54;27.30;;;17.10;;
6626;SDS011;3349;49.830;8.748;2022-12-07T08:31:21;21.85;;;13.05;;
6626;SDS011;3349;49.830;8.748;2022-12-07T08:33:49;14.13;;;9.73;;
6626;SDS011;3349;49.830;8.748;2022-12-07T08:36:16;16.25;;;10.60;;
6626;SDS011;3349;49.830;8.748;2022-12-07T08:38:43;16.13;;;10.10;;
6626;SDS011;3349;49.830;8.748;2022-12-07T08:41:11;14.10;;;10.05;;
6626;SDS011;3349;49.830;8.748;2022-12-07T08:43:38;17.33;;;9.93;;
6626;SDS011;3349;49.830;8.748;2022-12-07T08:46:06;14.63;;;9.98;;
6626;SDS011;3349;49.830;8.748;2022-12-07T08:48:38;13.90;;;9.43;;
6626;SDS011;3349;49.830;8.748;2022-12-07T08:51:11;15.07;;;9.50;;
6626;SDS011;3349;49.830;8.748;2022-12-07T08:53:38;13.00;;;9.02;;
6626;SDS011;3349;49.830;8.748;2022-12-07T08:56:06;13.52;;;9.52;;
6626;SDS011;3349;49.830;8.748;2022-12-07T08:58:33;13.10;;;9.27;;
6626;SDS011;3349;49.830;8.748;2022-12-07T09:01:03;14.07;;;9.75;;
6626;SDS011;3349;49.830;8.748;2022-12-07T09:03:30;13.90;;;9.35;;
6626;SDS011;3349;49.830;8.748;2022-12-07T09:05:58;16.45;;;9.65;;
6626;SDS011;3349;49.830;8.748;2022-12-07T09:08:28;15.27;;;9.77;;
6626;SDS011;3349;49.830;8.748;2022-12-07T09:10:58;17.67;;;9.73;;
6626;SDS011;3349;49.830;8.748;2022-12-07T09:13:25;12.73;;;9.48;;
6626;SDS011;3349;49.830;8.748;2022-12-07T09:15:52;16.42;;;9.48;;
6626;SDS011;3349;49.830;8.748;2022-12-07T09:18:19;15.20;;;9.90;;
6626;SDS011;3349;49.830;8.748;2022-12-07T09:20:45;13.68;;;8.90;;
6626;SDS011;3349;49.830;8.748;2022-12-07T09:23:12;12.68;;;9.00;;
6626;SDS011;3349;49.830;8.748;2022-12-07T09:25:40;15.65;;;10.10;;
6626;SDS011;3349;49.830;8.748;2022-12-07T09:28:07;14.13;;;9.30;;
6626;SDS011;3349;49.830;8.748;2022-12-07T09:30:34;15.68;;;9.65;;
6626;SDS011;3349;49.830;8.748;2022-12-07T09:33:01;12.98;;;9.63;;
6626;SDS011;3349;49.830;8.748;2022-12-07T09:35:28;13.57;;;9.65;;
6626;SDS011;3349;49.830;8.748;2022-12-07T09:37:55;13.63;;;9.85;;
6626;SDS011;3349;49.830;8.748;2022-12-07T09:40:22;12.98;;;9.23;;
6626;SDS011;3349;49.830;8.748;2022-12-07T09:42:52;12.98;;;9.10;;
6626;SDS011;3349;49.830;8.748;2022-12-07T09:45:21;13.15;;;9.52;;
6626;SDS011;3349;49.830;8.748;2022-12-07T09:47:50;15.70;;;9.60;;
6626;SDS011;3349;49.830;8.748;2022-12-07T09:50:19;13.82;;;8.85;;
6626;SDS011;3349;49.830;8.748;2022-12-07T09:52:49;12.57;;;8.73;;
6626;SDS011;3349;49.830;8.748;2022-12-07T09:55:18;13.52;;;10.05;;
6626;SDS011;3349;49.830;8.748;2022-12-07T09:57:49;13.63;;;9.05;;
6626;SDS011;3349;49.830;8.748;2022-12-07T10:00:18;12.45;;;8.48;;
6626;SDS011;3349;49.830;8.748;2022-12-07T10:02:48;12.55;;;9.73;;
6626;SDS011;3349;49.830;8.748;2022-12-07T10:05:19;19.13;;;9.70;;
6626;SDS011;3349;49.830;8.748;2022-12-07T10:07:49;14.02;;;9.07;;
6626;SDS011;3349;49.830;8.748;2022-12-07T10:10:17;13.40;;;8.65;;
6626;SDS011;3349;49.830;8.748;2022-12-07T10:12:59;12.27;;;8.85;;
6626;SDS011;3349;49.830;8.748;2022-12-07T10:15:41;13.45;;;9.23;;
6626;SDS011;3349;49.830;8.748;2022-12-07T10:18:17;11.10;;;8.93;;
6626;SDS011;3349;49.830;8.748;2022-12-07T10:21:03;12.93;;;9.00;;
6626;SDS011;3349;49.830;8.748;2022-12-07T10:23:34;13.05;;;9.65;;
6626;SDS011;3349;49.830;8.748;2022-12-07T10:26:14;14.23;;;9.38;;
6626;SDS011;3349;49.830;8.748;2022-12-07T10:28:48;13.57;;;9.10;;
6626;SDS011;3349;49.830;8.748;2022-12-07T10:31:15;13.77;;;10.52;;
6626;SDS011;3349;49.830;8.748;2022-12-07T10:33:48;13.15;;;9.70;;
6626;SDS011;3349;49.830;8.748;2022-12-07T10:36:18;14.25;;;10.18;;
6626;SDS011;3349;49.830;8.748;2022-12-07T10:38:47;12.30;;;9.13;;
6626;SDS011;3349;49.830;8.748;2022-12-07T10:41:16;12.32;;;8.65;;
6626;SDS011;3349;49.830;8.748;2022-12-07T10:43:54;16.20;;;9.82;;
6626;SDS011;3349;49.830;8.748;2022-12-07T10:46:38;14.18;;;8.80;;
6626;SDS011;3349;49.830;8.748;2022-12-07T10:49:27;15.88;;;9.50;;
6626;SDS011;3349;49.830;8.748;2022-12-07T10:52:38;14.35;;;8.88;;
6626;SDS011;3349;49.830;8.748;2022-12-07T10:55:22;11.95;;;9.18;;
6626;SDS011;3349;49.830;8.748;2022-12-07T10:57:59;13.30;;;9.68;;
6626;SDS011;3349;49.830;8.748;2022-12-07T11:00:43;14.60;;;9.13;;
6626;SDS011;3349;49.830;8.748;2022-12-07T11:03:29;21.67;;;10.88;;
6626;SDS011;3349;49.830;8.748;2022-12-07T11:06:32;13.27;;;9.77;;
6626;SDS011;3349;49.830;8.748;2022-12-07T11:09:08;12.95;;;9.48;;
6626;SDS011;3349;49.830;8.748;2022-12-07T11:11:54;13.63;;;8.88;;
6626;SDS011;3349;49.830;8.748;2022-12-07T11:14:31;15.05;;;9.30;;
6626;SDS011;3349;49.830;8.748;2022-12-07T11:17:07;13.77;;;9.55;;
6626;SDS011;3349;49.830;8.748;2022-12-07T11:19:47;13.20;;;8.73;;
6626;SDS011;3349;49.830;8.748;2022-12-07T11:22:27;12.02;;;8.57;;
6626;SDS011;3349;49.830;8.748;2022-12-07T11:25:13;12.63;;;8.43;;
6626;SDS011;3349;49.830;8.748;2022-12-07T11:27:45;9.65;;;7.88;;
6626;SDS011;3349;49.830;8.748;2022-12-07T11:30:21;13.52;;;7.93;;
6626;SDS011;3349;49.830;8.748;2022-12-07T11:32:58;13.82;;;9.40;;
6626;SDS011;3349;49.830;8.748;2022-12-07T11:35:37;11.50;;;8.77;;
6626;SDS011;3349;49.830;8.748;2022-12-07T11:38:12;13.30;;;9.05;;
6626;SDS011;3349;49.830;8.748;2022-12-07T11:40:43;13.48;;;8.40;;
6626;SDS011;3349;49.830;8.748;2022-12-07T11:43:15;11.68;;;8.18;;
6626;SDS011;3349;49.830;8.748;2022-12-07T11:45:51;11.65;;;8.70;;
6626;SDS011;3349;49.830;8.748;2022-12-07T11:48:24;12.25;;;8.52;;
6626;SDS011;3349;49.830;8.748;2022-12-07T11:50:57;11.60;;;7.80;;
6626;SDS011;3349;49.830;8.748;2022-12-07T11:53:26;12.40;;;8.63;;
6626;SDS011;3349;49.830;8.748;2022-12-07T11:55:57;10.40;;;7.13;;
6626;SDS011;3349;49.830;8.748;2022-12-07T11:58:38;11.10;;;7.90;;
6626;SDS011;3349;49.830;8.748;2022-12-07T12:01:19;11.35;;;7.68;;
6626;SDS011;3349;49.830;8.748;2022-12-07T12:03:58;13.23;;;7.72;;
6626;SDS011;3349;49.830;8.748;2022-12-07T12:06:31;13.65;;;7.38;;
6626;SDS011;3349;49.830;8.748;2022-12-07T12:09:01;10.63;;;6.88;;
6626;SDS011;3349;49.830;8.748;2022-12-07T12:11:36;10.93;;;6.93;;
6626;SDS011;3349;49.830;8.748;2022-12-07T12:14:21;11.60;;;7.72;;
6626;SDS011;3349;49.830;8.748;2022-12-07T12:17:10;10.43;;;7.20;;
6626;SDS011;3349;49.830;8.748;2022-12-07T12:20:00;11.13;;;7.55;;
6626;SDS011;3349;49.830;8.748;2022-12-07T12:22:32;13.48;;;7.65;;
6626;SDS011;3349;49.830;8.748;2022-12-07T12:25:04;10.80;;;7.93;;
6626;SDS011;3349;49.830;8.748;2022-12-07T12:27:33;11.27;;;7.60;;
6626;SDS011;3349;49.830;8.748;2022-12-07T12:30:03;8.98;;;6.97;;
6626;SDS011;3349;49.830;8.748;2022-12-07T12:32:34;10.77;;;7.13;;
6626;SDS011;3349;49.830;8.748;2022-12-07T12:35:22;11.82;;;7.32;;
6626;SDS011;3349;49.830;8.748;2022-12-07T12:37:55;9.98;;;6.80;;
6626;SDS011;3349;49.830;8.748;2022-12-07T12:40:58;8.68;;;6.22;;
6626;SDS011;3349;49.830;8.748;2022-12-07T12:43:43;10.70;;;5.65;;
6626;SDS011;3349;49.830;8.748;2022-12-07T12:46:36;9.88;;;6.07;;
6626;SDS011;3349;49.830;8.748;2022-12-07T12:55:13;8.10;;;4.88;;
6626;SDS011;3349;49.830;8.748;2022-12-07T12:57:45;10.43;;;5.20;;
6626;SDS011;3349;49.830;8.748;2022-12-07T13:00:16;6.32;;;4.53;;
6626;SDS011;3349;49.830;8.748;2022-12-07T13:02:48;10.40;;;5.65;;
6626;SDS011;3349;49.830;8.748;2022-12-07T13:05:18;9.75;;;4.95;;
6626;SDS011;3349;49.830;8.748;2022-12-07T13:07:51;7.25;;;4.63;;
6626;SDS011;3349;49.830;8.748;2022-12-07T13:10:22;8.70;;;4.90;;
6626;SDS011;3349;49.830;8.748;2022-12-07T13:13:02;10.00;;;5.10;;
6626;SDS011;3349;49.830;8.748;2022-12-07T13:15:50;8.13;;;5.20;;
6626;SDS011;3349;49.830;8.748;2022-12-07T13:18:23;8.18;;;5.47;;
6626;SDS011;3349;49.830;8.748;2022-12-07T13:20:52;7.88;;;5.10;;
6626;SDS011;3349;49.830;8.748;2022-12-07T13:23:31;9.77;;;5.07;;
6626;SDS011;3349;49.830;8.748;2022-12-07T13:26:04;8.38;;;4.93;;
6626;SDS011;3349;49.830;8.748;2022-12-07T13:28:41;10.80;;;5.13;;
6626;SDS011;3349;49.830;8.748;2022-12-07T13:31:13;7.57;;;4.15;;
6626;SDS011;3349;49.830;8.748;2022-12-07T13:33:47;7.30;;;3.80;;
6626;SDS011;3349;49.830;8.748;2022-12-07T13:36:16;5.68;;;3.97;;
6626;SDS011;3349;49.830;8.748;2022-12-07T13:38:55;8.02;;;4.43;;
6626;SDS011;3349;49.830;8.748;2022-12-07T13:41:23;4.82;;;3.50;;
6626;SDS011;3349;49.830;8.748;2022-12-07T13:43:53;7.68;;;4.45;;
6626;SDS011;3349;49.830;8.748;2022-12-07T13:46:29;9.43;;;6.15;;
6626;SDS011;3349;49.830;8.748;2022-12-07T13:49:03;7.60;;;5.32;;
6626;SDS011;3349;49.830;8.748;2022-12-07T13:51:47;9.60;;;5.28;;
6626;SDS011;3349;49.830;8.748;2022-12-07T13:54:15;7.65;;;5.00;;
6626;SDS011;3349;49.830;8.748;2022-12-07T13:56:43;8.65;;;5.45;;
6626;SDS011;3349;49.830;8.748;2022-12-07T13:59:13;9.52;;;5.43;;
6626;SDS011;3349;49.830;8.748;2022-12-07T14:01:44;8.30;;;5.85;;
6626;SDS011;3349;49.830;8.748;2022-12-07T14:04:16;10.32;;;6.63;;
6626;SDS011;3349;49.830;8.748;2022-12-07T14:06:48;9.63;;;7.43;;
6626;SDS011;3349;49.830;8.748;2022-12-07T14:09:18;11.38;;;7.53;;
6626;SDS011;3349;49.830;8.748;2022-12-07T14:11:47;11.85;;;7.43;;
6626;SDS011;3349;49.830;8.748;2022-12-07T14:14:16;16.23;;;7.78;;
6626;SDS011;3349;49.830;8.748;2022-12-07T14:16:55;12.45;;;7.75;;
6626;SDS011;3349;49.830;8.748;2022-12-07T14:19:43;10.98;;;6.70;;
6626;SDS011;3349;49.830;8.748;2022-12-07T14:22:29;10.57;;;6.18;;
6626;SDS011;3349;49.830;8.748;2022-12-07T14:24:59;11.47;;;6.83;;
6626;SDS011;3349;49.830;8.748;2022-12-07T14:27:38;10.85;;;7.07;;
6626;SDS011;3349;49.830;8.748;2022-12-07T14:30:05;11.55;;;6.50;;
6626;SDS011;3349;49.830;8.748;2022-12-07T14:32:41;13.43;;;8.30;;
6626;SDS011;3349;49.830;8.748;2022-12-07T14:35:14;11.60;;;7.95;;
6626;SDS011;3349;49.830;8.748;2022-12-07T14:37:42;14.15;;;8.18;;
6626;SDS011;3349;49.830;8.748;2022-12-07T14:40:13;11.93;;;7.88;;
6626;SDS011;3349;49.830;8.748;2022-12-07T14:42:42;13.23;;;6.95;;
6626;SDS011;3349;49.830;8.748;2022-12-07T14:45:13;9.65;;;6.47;;
6626;SDS011;3349;49.830;8.748;2022-12-07T14:47:42;8.75;;;6.18;;
6626;SDS011;3349;49.830;8.748;2022-12-07T14:50:11;10.97;;;6.93;;
6626;SDS011;3349;49.830;8.748;2022-12-07T14:52:38;11.70;;;6.50;;
6626;SDS011;3349;49.830;8.748;2022-12-07T14:55:08;12.10;;;6.45;;
6626;SDS011;3349;49.830;8.748;2022-12-07T14:57:43;11.10;;;5.57;;
6626;SDS011;3349;49.830;8.748;2022-12-07T15:00:13;13.90;;;6.13;;
6626;SDS011;3349;49.830;8.748;2022-12-07T15:02:42;10.20;;;5.15;;
6626;SDS011;3349;49.830;8.748;2022-12-07T15:05:09;8.93;;;5.45;;
6626;SDS011;3349;49.830;8.748;2022-12-07T15:07:36;10.35;;;5.05;;
6626;SDS011;3349;49.830;8.748;2022-12-07T15:10:03;9.27;;;5.13;;
6626;SDS011;3349;49.830;8.748;2022-12-07T15:12:32;11.57;;;6.20;;
6626;SDS011;3349;49.830;8.748;2022-12-07T15:14:59;8.90;;;4.85;;
6626;SDS011;3349;49.830;8.748;2022-12-07T15:17:26;8.93;;;4.93;;
6626;SDS011;3349;49.830;8.748;2022-12-07T15:19:53;12.50;;;5.00;;
6626;SDS011;3349;49.830;8.748;2022-12-07T15:22:20;7.78;;;4.07;;
6626;SDS011;3349;49.830;8.748;2022-12-07T15:24:47;7.65;;;4.30;;
6626;SDS011;3349;49.830;8.748;2022-12-07T15:27:14;11.07;;;4.75;;
6626;SDS011;3349;49.830;8.748;2022-12-07T15:29:42;7.88;;;4.40;;
6626;SDS011;3349;49.830;8.748;2022-12-07T15:32:09;6.40;;;4.30;;
6626;SDS011;3349;49.830;8.748;2022-12-07T15:34:35;8.73;;;4.18;;